Time;durP1;ratioP1;P1;durP2;ratioP2;P2;SDS_P1;SDS_P2;PMS_P1;PMS_P2;Temp;Humidity;BMP_temperature;BMP_pressure;BME280_temperature;BME280_humidity;BME280_pressure;Samples;Min_cycle;Max_cycle;Signal;HPM_P1;HPM_P2
2021/01/20 00:01:47;;;;;;;141.07;39.30;;;;;;;-20.23;62.06;100635.61;1654535;86;21259;-62
2021/01/20 00:04:18;;;;;;;122.07;35.53;;;;;;;-20.22;62.23;100639.87;1654471;86;21219;-62
2021/01/20 00:06:47;;;;;;;100.47;31.40;;;;;;;-20.22;62.24;100646.13;1635935;86;21232;-64
2021/01/20 00:09:18;;;;;;;101.27;34.13;;;;;;;-20.25;62.15;100645.86;1612675;86;21211;-62
2021/01/20 00:11:45;;;;;;;94.93;31.03;;;;;;;-20.26;62.21;100650.72;1649248;86;21235;-63
2021/01/20 00:14:18;;;;;;;88.77;28.70;;;;;;;-20.24;62.31;100651.41;1655916;86;22710;-63
2021/01/20 00:16:46;;;;;;;102.27;32.83;;;;;;;-20.32;62.19;100648.55;1655820;86;21783;-62
2021/01/20 00:19:14;;;;;;;98.30;31.20;;;;;;;-20.47;62.45;100642.09;1655906;86;21650;-63
2021/01/20 00:21:42;;;;;;;70.90;26.97;;;;;;;-20.48;62.69;100655.38;1651475;85;21275;-63
2021/01/20 00:24:10;;;;;;;106.63;32.33;;;;;;;-20.47;62.80;100649.27;1648857;87;21667;-63
2021/01/20 00:26:38;;;;;;;87.10;27.37;;;;;;;-20.44;62.87;100647.41;1648845;86;21383;-64
2021/01/20 00:29:06;;;;;;;78.13;25.70;;;;;;;-20.42;62.92;100652.20;1648927;87;21208;-62
2021/01/20 00:31:34;;;;;;;73.10;25.30;;;;;;;-20.41;63.02;100656.45;1648375;85;21176;-65
2021/01/20 00:34:06;;;;;;;79.57;27.50;;;;;;;-20.45;62.93;100654.39;1653495;86;22207;-64
2021/01/20 00:36:34;;;;;;;91.47;29.20;;;;;;;-20.50;63.01;100654.34;1654431;86;21239;-64
2021/01/20 00:39:04;;;;;;;80.73;28.03;;;;;;;-20.56;63.15;100645.94;1681894;85;21497;-63
2021/01/20 00:41:34;;;;;;;85.80;29.07;;;;;;;-20.58;63.32;100643.28;1681917;85;21195;-64
2021/01/20 00:44:03;;;;;;;82.57;30.47;;;;;;;-20.57;63.39;100643.78;1681939;85;21195;-63
2021/01/20 00:46:31;;;;;;;87.10;28.98;;;;;;;-20.57;63.36;100639.14;1682242;85;21680;-63
2021/01/20 00:48:59;;;;;;;85.57;27.73;;;;;;;-20.54;63.42;100639.39;1681812;85;21227;-63
2021/01/20 00:51:28;;;;;;;66.80;23.60;;;;;;;-20.53;63.52;100644.55;1682069;85;21819;-62
2021/01/20 00:53:55;;;;;;;83.30;27.53;;;;;;;-20.50;63.64;100644.33;1654064;85;21769;-63
2021/01/20 00:56:23;;;;;;;78.27;26.37;;;;;;;-20.50;63.76;100636.81;1638221;87;21769;-63
2021/01/20 00:58:51;;;;;;;81.47;27.03;;;;;;;-20.49;63.72;100639.81;1638568;87;22404;-64
2021/01/20 01:01:19;;;;;;;76.03;28.23;;;;;;;-20.50;63.75;100638.06;1638857;87;21637;-64
2021/01/20 01:03:47;;;;;;;81.37;27.17;;;;;;;-20.56;63.67;100638.05;1638866;87;21835;-63
2021/01/20 01:06:16;;;;;;;76.33;24.80;;;;;;;-20.69;63.71;100638.88;1633465;87;21226;-63
2021/01/20 01:08:44;;;;;;;69.60;26.70;;;;;;;-20.71;63.85;100634.47;1627730;88;21220;-63
2021/01/20 01:11:12;;;;;;;81.87;26.90;;;;;;;-20.71;63.97;100634.09;1627522;88;21211;-63
2021/01/20 01:13:50;;;;;;;85.90;27.33;;;;;;;-20.68;64.03;100635.62;1834301;77;24109;-62
2021/01/20 01:16:39;;;;;;;94.90;29.42;;;;;;;-20.70;64.10;100639.64;1783632;80;21217;-64
2021/01/20 01:19:07;;;;;;;82.57;27.13;;;;;;;-20.67;64.13;100637.41;1785654;80;22327;-63
2021/01/20 01:21:37;;;;;;;75.92;26.87;;;;;;;-20.63;64.15;100631.05;1785423;80;21011;-62
2021/01/20 01:24:07;;;;;;;81.17;27.17;;;;;;;-20.63;64.09;100628.54;1785563;80;21157;-63
2021/01/20 01:26:37;;;;;;;58.00;21.17;;;;;;;-20.65;64.01;100627.17;1755234;80;21166;-62
2021/01/20 01:29:05;;;;;;;77.25;25.77;;;;;;;-20.65;63.95;100627.17;1785753;80;21130;-63
2021/01/20 01:31:34;;;;;;;;;;;;;;;-20.66;63.92;100629.14;1786711;80;21300;-63
2021/01/20 01:34:03;;;;;;;69.60;25.70;;;;;;;-20.64;64.06;100636.81;1789054;78;20742;-63
2021/01/20 01:36:32;;;;;;;91.87;29.53;;;;;;;-20.69;64.11;100635.12;1793884;78;21677;-64
2021/01/20 01:39:03;;;;;;;95.33;29.07;;;;;;;-20.73;64.07;100643.08;1811646;79;21206;-64
2021/01/20 01:41:33;;;;;;;95.30;29.37;;;;;;;-20.73;64.01;100640.58;1811909;79;21191;-63
2021/01/20 01:44:03;;;;;;;110.53;33.03;;;;;;;-20.76;63.94;100647.44;1812583;79;21443;-63
2021/01/20 01:46:32;;;;;;;94.30;32.78;;;;;;;-20.79;63.98;100641.27;1812556;79;21246;-63
2021/01/20 01:49:11;;;;;;;110.33;31.73;;;;;;;-20.73;64.00;100643.08;1850102;77;23116;-64
2021/01/20 01:51:40;;;;;;;101.58;33.30;;;;;;;-20.83;63.89;100639.20;1811880;78;21174;-63
2021/01/20 01:54:21;;;;;;;126.93;37.43;;;;;;;-20.90;63.77;100641.88;1769857;80;21619;-62
2021/01/20 01:56:51;;;;;;;138.07;44.57;;;;;;;-21.04;63.80;100645.19;1774183;80;21171;-63
2021/01/20 01:59:21;;;;;;;111.93;32.60;;;;;;;-21.09;63.83;100652.63;1775426;79;21171;-64
2021/01/20 02:01:50;;;;;;;123.72;39.67;;;;;;;-21.09;63.99;100656.39;1798071;79;21122;-62
2021/01/20 02:04:20;;;;;;;131.87;41.70;;;;;;;-21.07;64.11;100652.38;1797781;79;21222;-63
2021/01/20 02:06:56;;;;;;;136.32;42.10;;;;;;;-21.07;63.90;100658.64;1758034;79;21660;-63
2021/01/20 02:09:26;;;;;;;145.57;42.87;;;;;;;-21.16;63.89;100657.41;1743535;82;21229;-64
2021/01/20 02:12:17;;;;;;;;;;;;;;;-21.26;64.03;100658.50;1746375;82;21617;-62
2021/01/20 02:15:23;;;;;;;155.63;45.40;;;;;;;-21.30;64.14;100660.55;1742523;82;20257;-62
2021/01/20 02:18:12;;;;;;;139.73;41.87;;;;;;;-21.33;64.40;100656.52;1755059;80;21202;-63
2021/01/20 02:21:35;;;;;;;155.80;47.00;;;;;;;-21.37;64.33;100647.48;1845577;76;23105;-64
2021/01/20 02:24:17;;;;;;;140.83;44.63;;;;;;;-21.46;64.31;100656.63;1810909;79;21198;-63
2021/01/20 02:27:06;;;;;;;128.70;42.53;;;;;;;-21.47;64.45;100651.09;1787206;79;21383;-63
2021/01/20 02:30:03;;;;;;;162.67;43.53;;;;;;;-21.49;64.45;100652.93;1777001;79;21689;-62
2021/01/20 02:32:36;;;;;;;131.17;42.00;;;;;;;-21.56;64.58;100648.95;1814584;79;21186;-64
2021/01/20 02:35:09;;;;;;;108.67;35.47;;;;;;;-21.63;64.76;100652.47;1811239;79;21171;-64
2021/01/20 02:37:38;;;;;;;125.37;37.03;;;;;;;-21.62;64.74;100658.34;1787670;79;21131;-69
2021/01/20 02:40:21;;;;;;;167.83;47.90;;;;;;;-21.53;65.24;100656.73;1843385;76;22692;-63
2021/01/20 02:43:08;;;;;;;147.23;45.13;;;;;;;-21.48;65.73;100655.59;1815439;79;21186;-63
2021/01/20 02:45:38;;;;;;;162.00;47.40;;;;;;;-21.45;65.30;100658.38;1811154;79;21329;-62
2021/01/20 02:48:08;;;;;;;161.65;43.75;;;;;;;-21.48;64.88;100658.09;1816079;79;21602;-62
2021/01/20 02:53:42;;;;;;;145.73;44.67;;;;;;;-21.42;64.59;100656.16;1750102;79;24119;-63
2021/01/20 02:56:31;;;;;;;152.63;42.83;;;;;;;-21.41;64.64;100657.95;1640343;85;21250;-62
2021/01/20 02:59:20;;;;;;;129.13;42.90;;;;;;;-21.16;64.47;100654.00;1887656;76;23140;-63
2021/01/20 03:01:55;;;;;;;133.60;43.03;;;;;;;-21.10;64.20;100654.61;1856054;77;21166;-63
2021/01/20 03:04:23;;;;;;;129.27;43.77;;;;;;;-20.93;64.17;100652.83;1858713;77;21368;-63
2021/01/20 03:06:51;;;;;;;143.00;41.90;;;;;;;-20.72;64.24;100661.14;1822527;76;21179;-64
2021/01/20 03:09:19;;;;;;;149.73;43.30;;;;;;;-20.53;63.99;100659.58;1862050;77;21559;-62
2021/01/20 03:11:50;;;;;;;142.53;43.83;;;;;;;-20.38;63.48;100655.48;1861771;77;21179;-63
2021/01/20 03:14:25;;;;;;;151.33;45.63;;;;;;;-20.31;63.06;100654.05;1861978;77;21179;-62
2021/01/20 03:16:53;;;;;;;107.50;34.63;;;;;;;-20.25;62.79;100659.64;1861936;77;21807;-63
2021/01/20 03:19:21;;;;;;;154.07;46.43;;;;;;;-20.16;62.60;100647.96;1840956;77;21172;-63
2021/01/20 03:21:48;;;;;;;154.40;50.00;;;;;;;-19.96;62.40;100658.95;1820905;78;21147;-62
2021/01/20 03:24:18;;;;;;;187.68;55.67;;;;;;;-19.80;62.41;100658.35;1821349;78;21168;-62
2021/01/20 03:26:45;;;;;;;212.33;73.33;;;;;;;-19.64;62.18;100663.45;1821259;78;21742;-63
2021/01/20 03:29:12;;;;;;;196.17;64.67;;;;;;;-19.47;61.82;100672.14;1818895;76;21185;-61
2021/01/20 03:31:40;;;;;;;206.20;64.03;;;;;;;-19.33;61.64;100664.59;1818208;78;21687;-62
2021/01/20 03:34:08;;;;;;;200.37;55.50;;;;;;;-19.19;61.34;100664.19;1818383;78;21628;-62
2021/01/20 03:36:39;;;;;;;196.80;59.87;;;;;;;-19.10;60.79;100667.51;1818307;78;21145;-62
2021/01/20 03:39:06;;;;;;;187.40;56.67;;;;;;;-19.05;60.59;100671.69;1787870;78;21182;-62
2021/01/20 03:41:34;;;;;;;197.00;59.43;;;;;;;-19.01;60.58;100668.70;1751461;81;21218;-63
2021/01/20 03:44:05;;;;;;;226.77;70.97;;;;;;;-18.92;60.15;100677.42;1755621;80;21154;-62
2021/01/20 03:46:33;;;;;;;234.73;71.77;;;;;;;-18.94;59.66;100669.75;1782480;80;21143;-61
2021/01/20 03:49:02;;;;;;;224.90;69.03;;;;;;;-18.91;59.55;100670.00;1782482;80;21198;-63
2021/01/20 03:51:30;;;;;;;230.03;71.07;;;;;;;-18.85;59.43;100660.51;1766041;80;21200;-61
2021/01/20 03:54:00;;;;;;;225.23;69.90;;;;;;;-18.77;59.33;100663.67;1755017;81;22054;-63
2021/01/20 03:56:29;;;;;;;238.72;73.35;;;;;;;-18.70;59.08;100665.06;1782738;80;21187;-61
2021/01/20 03:58:56;;;;;;;206.97;64.37;;;;;;;-18.62;58.91;100665.37;1761588;80;21139;-62
2021/01/20 04:01:25;;;;;;;221.00;70.83;;;;;;;-18.53;58.76;100669.06;1769694;80;21730;-62
2021/01/20 04:03:54;;;;;;;234.13;71.93;;;;;;;-18.46;58.67;100665.94;1830208;78;21725;-62
2021/01/20 04:06:24;;;;;;;189.95;62.53;;;;;;;-18.42;58.78;100664.20;1772515;80;21827;-62
2021/01/20 04:08:52;;;;;;;186.07;56.13;;;;;;;-18.48;58.26;100652.36;1811983;78;21182;-62
2021/01/20 04:11:20;;;;;;;182.63;57.17;;;;;;;-18.64;57.65;100659.33;1780348;80;21181;-61
2021/01/20 04:13:48;;;;;;;164.87;56.53;;;;;;;-18.70;57.75;100657.18;1780719;80;21177;-63
2021/01/20 04:16:17;;;;;;;195.47;61.92;;;;;;;-18.65;58.16;100656.32;1797161;79;21168;-64
2021/01/20 04:18:46;;;;;;;173.20;53.00;;;;;;;-18.70;58.04;100662.55;1796905;79;21252;-62
2021/01/20 04:21:15;;;;;;;243.10;80.07;;;;;;;-18.73;58.24;100666.94;1797755;78;21193;-65
2021/01/20 04:23:42;;;;;;;263.57;80.40;;;;;;;-18.74;58.12;100656.78;1773058;80;21154;-62
2021/01/20 04:26:10;;;;;;;275.40;85.53;;;;;;;-18.70;58.43;100651.25;1757381;81;21402;-63
2021/01/20 04:28:38;;;;;;;272.40;81.87;;;;;;;-18.61;59.24;100648.27;1790383;80;21157;-61
2021/01/20 04:31:06;;;;;;;279.97;84.07;;;;;;;-18.54;59.65;100649.69;1757428;81;21484;-62
2021/01/20 04:33:34;;;;;;;292.17;89.57;;;;;;;-18.46;59.54;100654.63;1789932;80;21182;-62
2021/01/20 04:36:04;;;;;;;317.15;99.45;;;;;;;-18.44;59.33;100654.77;1769072;81;21193;-63
2021/01/20 04:38:32;;;;;;;339.27;98.67;;;;;;;-18.44;59.11;100645.59;1768827;81;21664;-62
2021/01/20 04:41:00;;;;;;;261.07;82.10;;;;;;;-18.38;59.00;100643.09;1738140;82;21646;-62
2021/01/20 04:43:28;;;;;;;243.47;76.60;;;;;;;-18.42;58.50;100642.84;1768670;80;21193;-63
2021/01/20 04:45:56;;;;;;;238.30;78.77;;;;;;;-18.49;58.29;100645.58;1757038;81;21250;-62
2021/01/20 04:48:31;;;;;;;277.53;84.67;;;;;;;-18.47;58.21;100645.69;1790133;80;21163;-62
2021/01/20 04:50:54;;;;;;;274.90;81.97;;;;;;;-18.50;58.10;100638.78;1756385;81;21344;-63
2021/01/20 04:53:22;;;;;;;255.83;76.00;;;;;;;-18.59;57.94;100637.98;1790116;80;21170;-63
2021/01/20 04:55:50;;;;;;;285.10;89.17;;;;;;;-18.58;58.77;100649.82;1729759;81;21378;-65
2021/01/20 04:58:18;;;;;;;285.00;88.63;;;;;;;-18.51;59.15;100644.95;1790130;80;21170;-62
2021/01/20 05:00:46;;;;;;;295.73;90.03;;;;;;;-18.41;59.03;100647.48;1754337;81;21211;-65
2021/01/20 05:03:14;;;;;;;276.50;84.33;;;;;;;-18.26;59.03;100650.45;1784448;79;21672;-62
2021/01/20 05:05:41;;;;;;;296.20;86.10;;;;;;;-18.21;59.26;100649.20;1761993;80;21175;-63
2021/01/20 05:08:09;;;;;;;275.60;84.60;;;;;;;-18.12;59.42;100655.00;1781781;80;21811;-63
2021/01/20 05:10:37;;;;;;;271.90;84.17;;;;;;;-18.08;59.78;100643.55;1785237;80;21171;-63
2021/01/20 05:13:06;;;;;;;249.40;78.40;;;;;;;-17.94;60.22;100648.48;1754930;80;21210;-62
2021/01/20 05:15:35;;;;;;;257.00;76.87;;;;;;;-17.84;60.39;100652.29;1725036;81;21211;-63
2021/01/20 05:18:07;;;;;;;181.10;55.43;;;;;;;-17.73;62.60;100662.84;1754235;81;21171;-62
2021/01/20 05:20:39;;;;;;;213.00;67.67;;;;;;;-17.63;63.51;100664.09;1754140;81;21368;-65
2021/01/20 05:23:08;;;;;;;251.10;79.73;;;;;;;-17.51;64.33;100661.70;1781713;80;21203;-64
2021/01/20 05:25:38;;;;;;;226.83;71.80;;;;;;;-17.42;64.33;100669.14;1786944;79;21186;-63
2021/01/20 05:28:26;;;;;;;207.70;63.78;;;;;;;-17.43;63.27;100671.17;1754483;81;21211;-63
2021/01/20 05:31:00;;;;;;;237.23;75.93;;;;;;;-17.49;63.00;100666.88;1756754;78;21497;-64
2021/01/20 05:33:38;;;;;;;233.20;76.47;;;;;;;-17.47;63.58;100669.14;1756525;81;21360;-62
2021/01/20 05:36:14;;;;;;;183.20;57.07;;;;;;;-17.40;64.14;100677.70;1756497;79;21917;-63
2021/01/20 05:38:52;;;;;;;212.17;68.93;;;;;;;-17.34;64.83;100679.09;1741879;81;21182;-62
2021/01/20 05:41:27;;;;;;;183.63;58.67;;;;;;;-17.39;64.51;100681.97;1767923;79;21174;-65
2021/01/20 05:44:12;;;;;;;233.60;69.50;;;;;;;-17.38;66.38;100676.20;1759030;79;21175;-64
2021/01/20 05:46:43;;;;;;;214.00;67.87;;;;;;;-17.19;67.74;100683.23;1763330;79;21376;-65
2021/01/20 05:49:26;;;;;;;164.27;50.57;;;;;;;-17.14;66.84;100687.38;1753224;81;21209;-64
2021/01/20 05:51:54;;;;;;;170.90;56.90;;;;;;;-17.03;70.42;100681.58;1741031;81;21182;-65
2021/01/20 05:54:42;;;;;;;117.47;36.80;;;;;;;-16.85;70.17;100683.45;1753671;81;21763;-64
2021/01/20 05:57:16;;;;;;;116.43;33.47;;;;;;;-16.70;70.94;100687.17;1722359;81;21206;-65
2021/01/20 05:59:45;;;;;;;107.10;36.27;;;;;;;-16.69;71.60;100684.27;1797890;78;21209;-68
2021/01/20 06:02:14;;;;;;;262.25;74.53;;;;;;;-16.65;70.63;100688.80;1795468;78;21529;-67
2021/01/20 06:04:42;;;;;;;248.03;74.40;;;;;;;-16.63;69.80;100685.12;1785320;78;21171;-68
2021/01/20 06:07:13;;;;;;;134.33;44.53;;;;;;;-16.65;68.95;100691.31;1793487;78;21186;-67
2021/01/20 06:09:46;;;;;;;201.97;60.43;;;;;;;-16.60;70.10;100691.69;1797081;78;21195;-67
2021/01/20 06:12:14;;;;;;;155.60;46.73;;;;;;;-16.42;70.04;100693.49;1794960;78;21116;-67
2021/01/20 06:14:43;;;;;;;102.70;33.38;;;;;;;-16.30;70.22;100690.31;1816386;78;21142;-66
2021/01/20 06:17:19;;;;;;;93.53;25.47;;;;;;;-16.15;71.69;100691.00;1817169;78;21171;-68
2021/01/20 06:19:54;;;;;;;104.70;36.00;;;;;;;-16.21;70.35;100692.67;1802556;78;21621;-66
2021/01/20 06:22:22;;;;;;;145.27;47.67;;;;;;;-16.53;68.60;100701.49;1807403;78;21170;-67
2021/01/20 06:25:10;;;;;;;140.00;45.87;;;;;;;-16.82;68.16;100702.97;1774162;78;21437;-67
2021/01/20 06:28:01;;;;;;;92.77;30.87;;;;;;;-17.10;68.80;100705.77;1788413;78;21155;-68
2021/01/20 06:30:38;;;;;;;131.00;44.98;;;;;;;-17.30;69.66;100716.72;1776446;80;21178;-68
2021/01/20 06:33:13;;;;;;;78.73;28.63;;;;;;;-17.45;70.25;100720.50;1787243;78;21191;-68
2021/01/20 06:35:45;;;;;;;126.67;42.33;;;;;;;-17.65;70.31;100720.09;1812942;78;21158;-68
2021/01/20 06:38:35;;;;;;;111.90;37.97;;;;;;;-17.73;70.47;100724.48;1814568;78;21362;-68
2021/01/20 06:41:10;;;;;;;125.80;38.73;;;;;;;-17.79;70.34;100712.25;1774883;78;21224;-69
2021/01/20 06:43:48;;;;;;;142.93;46.37;;;;;;;-17.87;70.80;100717.41;1784251;80;21168;-69
2021/01/20 06:46:25;;;;;;;113.23;37.70;;;;;;;-17.83;70.82;100715.67;1785313;80;21173;-68
2021/01/20 06:48:59;;;;;;;105.30;34.73;;;;;;;-17.65;71.29;100715.05;1785432;80;21177;-74
2021/01/20 06:51:28;;;;;;;116.23;35.50;;;;;;;-17.54;71.23;100714.31;1792788;78;21203;-70
2021/01/20 06:56:52;;;;;;;74.83;26.70;;;;;;;-16.75;71.37;100701.41;1882546;76;27190;-70
2021/01/20 06:59:34;;;;;;;144.90;45.93;;;;;;;-16.54;70.01;100708.53;1817736;77;21146;-70
2021/01/20 07:02:10;;;;;;;128.07;38.73;;;;;;;-16.54;69.30;100703.14;1844551;77;21331;-70
2021/01/20 07:04:53;;;;;;;136.28;42.20;;;;;;;-16.58;69.08;100695.21;1841154;77;21170;-70
2021/01/20 07:07:53;;;;;;;117.90;38.07;;;;;;;-16.50;69.13;100696.30;1831930;77;21190;-69
2021/01/20 07:10:27;;;;;;;56.20;21.33;;;;;;;-16.44;69.05;100710.17;1836112;77;21083;-69
2021/01/20 07:13:17;;;;;;;89.47;29.57;;;;;;;-16.40;68.91;100709.27;1831357;77;21621;-69
2021/01/20 07:15:50;;;;;;;77.27;29.12;;;;;;;-16.33;68.95;100715.30;1827404;77;21641;-70
2021/01/20 07:18:18;;;;;;;106.47;33.37;;;;;;;-16.07;68.54;100721.50;1800841;78;21149;-70
2021/01/20 07:20:50;;;;;;;93.12;33.50;;;;;;;-15.95;67.37;100719.92;1750981;78;21130;-70
2021/01/20 07:23:18;;;;;;;159.45;49.38;;;;;;;-15.62;66.81;100726.14;1801050;77;21613;-70
2021/01/20 07:25:48;;;;;;;142.87;50.23;;;;;;;-15.15;65.81;100723.81;1784051;80;21111;-71
2021/01/20 07:28:21;;;;;;;125.10;44.50;;;;;;;-14.64;64.50;100721.70;1784422;80;21179;-69
2021/01/20 07:30:53;;;;;;;124.37;36.30;;;;;;;-14.10;63.14;100724.62;1806887;77;21204;-71
2021/01/20 07:33:22;;;;;;;123.97;43.03;;;;;;;-13.61;61.52;100731.85;1799315;78;21193;-70
2021/01/20 07:35:51;;;;;;;134.43;49.30;;;;;;;-13.32;59.87;100725.85;1797193;78;21205;-71
2021/01/20 07:38:19;;;;;;;118.90;40.13;;;;;;;-12.93;58.85;100731.80;1816873;78;21201;-71
2021/01/20 07:40:47;;;;;;;136.80;43.13;;;;;;;-12.69;57.56;100734.18;1800598;78;21385;-70
2021/01/20 07:43:22;;;;;;;135.10;46.47;;;;;;;-12.30;57.42;100730.79;1797703;77;21194;-71
2021/01/20 07:45:52;;;;;;;141.57;53.07;;;;;;;-11.87;56.37;100736.01;1746639;82;21612;-72
2021/01/20 07:48:33;;;;;;;139.00;52.03;;;;;;;-11.48;54.77;100734.16;1749347;80;21204;-72
2021/01/20 07:51:03;;;;;;;133.93;47.47;;;;;;;-11.11;53.59;100736.73;1739333;81;21170;-71
2021/01/20 07:53:31;;;;;;;142.97;54.63;;;;;;;-10.94;52.33;100734.80;1744984;81;22670;-72
2021/01/20 07:56:00;;;;;;;107.60;38.47;;;;;;;-10.62;51.46;100737.07;1766068;80;21213;-71
2021/01/20 07:58:34;;;;;;;141.87;53.80;;;;;;;-10.77;51.14;100729.01;1734414;81;21195;-71
2021/01/20 08:01:01;;;;;;;139.07;50.73;;;;;;;-10.70;51.33;100747.19;1731057;81;21135;-72
2021/01/20 08:03:39;;;;;;;133.40;47.10;;;;;;;-10.44;50.89;100754.67;1735062;81;21209;-70
2021/01/20 08:06:10;;;;;;;137.07;55.10;;;;;;;-10.18;50.26;100753.55;1759052;80;21178;-72
2021/01/20 08:08:57;;;;;;;129.12;48.08;;;;;;;-9.85;50.00;100747.28;1747562;80;21229;-72
2021/01/20 08:11:28;;;;;;;136.70;54.63;;;;;;;-9.54;48.95;100744.72;1746026;81;21195;-71
2021/01/20 08:13:59;;;;;;;145.80;55.30;;;;;;;-9.40;48.20;100748.41;1738571;80;21849;-71
2021/01/20 08:16:38;;;;;;;138.77;52.73;;;;;;;-9.13;47.61;100752.41;1729566;81;21234;-71
2021/01/20 08:19:06;;;;;;;133.23;49.57;;;;;;;-8.99;47.15;100742.91;1749963;81;21348;-69
2021/01/20 08:21:34;;;;;;;154.87;55.53;;;;;;;-8.99;47.41;100749.70;1773249;80;21189;-71
2021/01/20 08:24:06;;;;;;;124.00;51.58;;;;;;;-8.60;47.40;100744.81;1745264;82;28389;-73
2021/01/20 08:26:39;;;;;;;110.63;45.40;;;;;;;-8.48;46.16;100748.00;1701804;83;21231;-73
2021/01/20 08:29:12;;;;;;;123.87;49.13;;;;;;;-8.32;46.88;100750.47;1726958;81;21182;-70
2021/01/20 08:31:42;;;;;;;165.50;61.20;;;;;;;-8.06;46.26;100745.73;1744368;81;21264;-70
2021/01/20 08:34:24;;;;;;;125.18;43.50;;;;;;;-7.77;45.84;100747.52;1739633;80;25784;-71
2021/01/20 08:36:55;;;;;;;139.57;54.23;;;;;;;-7.53;44.65;100750.31;1731856;81;21174;-69
2021/01/20 08:39:24;;;;;;;128.90;50.17;;;;;;;-7.31;44.50;100740.25;1742114;82;21229;-72
2021/01/20 08:42:26;;;;;;;118.70;45.40;;;;;;;-7.15;43.84;100736.69;1741919;82;21142;-71
2021/01/20 08:45:21;;;;;;;122.90;50.27;;;;;;;-6.72;43.34;100737.64;1747823;80;22392;-72
2021/01/20 08:48:09;;;;;;;121.27;48.50;;;;;;;-6.55;43.13;100732.42;1760562;79;21186;-71
2021/01/20 08:50:41;;;;;;;114.37;47.37;;;;;;;-6.21;42.58;100736.38;1761588;81;21589;-71
2021/01/20 08:53:27;;;;;;;121.30;49.37;;;;;;;-5.99;43.06;100726.95;1757156;81;21684;-73
2021/01/20 08:55:56;;;;;;;148.23;62.17;;;;;;;-5.50;42.66;100724.94;1736025;81;21178;-72
2021/01/20 08:58:30;;;;;;;117.60;49.67;;;;;;;-4.90;40.39;100719.39;1771008;80;21400;-72
2021/01/20 09:01:09;;;;;;;104.85;41.90;;;;;;;-4.70;39.33;100714.95;1749055;81;21201;-71
2021/01/20 09:03:39;;;;;;;121.40;46.10;;;;;;;-4.82;38.30;100720.96;1724815;81;21222;-74
2021/01/20 09:06:16;;;;;;;112.32;50.00;;;;;;;-5.18;39.72;100718.41;1734067;81;21195;-70
2021/01/20 09:08:44;;;;;;;86.60;37.60;;;;;;;-5.09;39.12;100725.16;1736710;81;21175;-72
2021/01/20 09:11:11;;;;;;;112.80;48.08;;;;;;;-5.24;39.29;100721.20;1746464;82;21658;-72
2021/01/20 09:13:39;;;;;;;108.40;46.25;;;;;;;-5.22;39.88;100716.96;1738715;80;21190;-73
2021/01/20 09:16:09;;;;;;;102.42;44.48;;;;;;;-5.01;39.86;100719.03;1750613;81;21148;-71
2021/01/20 09:18:38;;;;;;;101.02;45.33;;;;;;;-4.85;40.59;100712.32;1733655;81;21194;-73
2021/01/20 09:21:07;;;;;;;104.80;45.43;;;;;;;-4.46;39.91;100702.92;1746535;82;21717;-71
2021/01/20 09:23:34;;;;;;;103.80;42.40;;;;;;;-4.17;38.16;100711.97;1750811;81;21801;-72
2021/01/20 09:26:05;;;;;;;107.85;45.35;;;;;;;-4.01;38.16;100712.91;1750775;81;21155;-71
2021/01/20 09:28:33;;;;;;;85.62;32.67;;;;;;;-4.12;36.93;100718.13;1750662;80;21159;-71
2021/01/20 09:31:01;;;;;;;104.70;44.55;;;;;;;-4.36;37.07;100710.94;1739072;80;21221;-70
2021/01/20 09:33:28;;;;;;;107.97;44.23;;;;;;;-4.27;38.17;100711.23;1734690;82;21785;-70
2021/01/20 09:35:56;;;;;;;102.53;46.10;;;;;;;-4.13;37.70;100712.54;1725893;81;21359;-70
2021/01/20 09:38:24;;;;;;;101.33;46.60;;;;;;;-4.08;37.47;100717.41;1742463;82;21771;-70
2021/01/20 09:40:54;;;;;;;104.23;45.65;;;;;;;-3.96;37.50;100712.19;1749737;81;21142;-69
2021/01/20 09:43:23;;;;;;;115.37;49.58;;;;;;;-3.66;37.12;100714.43;1746660;82;21226;-69
2021/01/20 09:45:51;;;;;;;111.20;43.30;;;;;;;-3.23;37.79;100710.50;1746587;82;21617;-72
2021/01/20 09:48:19;;;;;;;128.40;54.70;;;;;;;-3.03;37.37;100703.75;1746737;82;21221;-70
2021/01/20 09:50:47;;;;;;;130.57;54.67;;;;;;;-2.80;36.77;100696.21;1746503;82;21577;-70
2021/01/20 09:53:15;;;;;;;121.55;54.90;;;;;;;-2.52;36.80;100702.50;1746622;82;21178;-69
2021/01/20 09:55:44;;;;;;;114.32;48.98;;;;;;;-2.34;35.25;100703.81;1716811;83;21154;-70
2021/01/20 09:58:12;;;;;;;109.25;46.73;;;;;;;-2.08;35.28;100698.41;1746484;82;21171;-70
2021/01/20 10:00:39;;;;;;;113.92;51.48;;;;;;;-2.35;34.82;100691.77;1747932;80;21184;-71
2021/01/20 10:03:10;;;;;;;112.72;49.25;;;;;;;-2.54;35.56;100693.00;1698082;83;21654;-72
2021/01/20 10:05:40;;;;;;;113.35;48.33;;;;;;;-2.53;34.67;100697.77;1753059;81;21161;-72
2021/01/20 10:08:07;;;;;;;101.65;47.15;;;;;;;-2.90;35.30;100700.64;1749732;80;21162;-72
2021/01/20 10:10:36;;;;;;;107.65;47.30;;;;;;;-3.14;35.38;100700.00;1720519;81;21190;-73
2021/01/20 10:13:04;;;;;;;116.08;49.15;;;;;;;-3.23;35.94;100691.59;1749728;80;21377;-73
2021/01/20 10:15:32;;;;;;;117.60;49.42;;;;;;;-3.08;35.90;100696.28;1739007;81;21724;-71
2021/01/20 10:17:59;;;;;;;136.18;54.35;;;;;;;-3.01;35.64;100690.50;1734722;81;21198;-73
2021/01/20 10:20:27;;;;;;;100.33;44.27;;;;;;;-3.21;35.42;100690.81;1749966;81;21301;-72
2021/01/20 10:22:56;;;;;;;137.92;53.52;;;;;;;-3.43;36.14;100694.89;1746533;81;21091;-72
2021/01/20 10:25:31;;;;;;;165.80;63.60;;;;;;;-3.51;36.73;100687.38;1773865;80;21788;-73
2021/01/20 10:27:59;;;;;;;131.55;52.75;;;;;;;-3.75;37.15;100690.98;1732326;81;21678;-72
2021/01/20 10:30:27;;;;;;;106.27;40.95;;;;;;;-3.69;37.76;100688.99;1714916;80;21208;-71
2021/01/20 10:32:55;;;;;;;101.70;40.80;;;;;;;-3.49;38.14;100687.02;1758619;81;21186;-71
2021/01/20 10:35:23;;;;;;;99.35;40.35;;;;;;;-3.34;37.73;100682.27;1771423;80;21229;-72
2021/01/20 10:37:51;;;;;;;92.95;40.05;;;;;;;-3.31;38.15;100675.05;1721593;82;21372;-69
2021/01/20 10:40:18;;;;;;;106.05;41.35;;;;;;;-3.21;37.91;100684.37;1735702;81;21187;-68
2021/01/20 10:42:46;;;;;;;87.10;36.28;;;;;;;-3.00;37.73;100678.05;1742932;82;21174;-68
2021/01/20 10:45:14;;;;;;;106.15;42.83;;;;;;;-2.71;36.13;100680.50;1742329;80;21178;-67
2021/01/20 10:47:42;;;;;;;94.17;42.53;;;;;;;-2.73;37.19;100671.89;1741589;81;21170;-69
2021/01/20 10:50:12;;;;;;;100.85;42.43;;;;;;;-2.78;35.61;100670.06;1746305;82;21207;-71
2021/01/20 10:52:40;;;;;;;106.97;44.13;;;;;;;-3.13;36.30;100674.69;1746469;81;21752;-67
2021/01/20 10:55:08;;;;;;;84.25;36.28;;;;;;;-3.24;36.54;100670.13;1738081;81;21510;-67
2021/01/20 10:57:38;;;;;;;93.37;37.88;;;;;;;-3.07;37.26;100673.57;1726592;82;21822;-70
2021/01/20 11:00:08;;;;;;;91.27;39.93;;;;;;;-2.55;36.58;100670.63;1749323;82;21242;-68
2021/01/20 11:02:37;;;;;;;107.85;42.83;;;;;;;-2.26;35.96;100661.84;1746349;82;21514;-69
2021/01/20 11:05:07;;;;;;;105.67;41.53;;;;;;;-2.40;35.78;100665.39;1747373;82;21133;-67
2021/01/20 11:07:35;;;;;;;95.35;38.13;;;;;;;-2.47;36.09;100665.66;1746971;82;21162;-70
2021/01/20 11:10:05;;;;;;;104.40;41.63;;;;;;;-2.37;36.36;100658.61;1746537;80;21182;-71
2021/01/20 11:12:32;;;;;;;103.05;42.40;;;;;;;-2.56;35.90;100664.14;1749354;81;21211;-71
2021/01/20 11:15:00;;;;;;;102.30;42.25;;;;;;;-2.74;36.24;100668.41;1758228;81;21785;-72
2021/01/20 11:17:29;;;;;;;94.50;41.68;;;;;;;-2.91;36.50;100661.55;1737313;81;21733;-71
2021/01/20 11:19:57;;;;;;;101.10;40.10;;;;;;;-2.92;36.98;100660.20;1757817;81;21882;-71
2021/01/20 11:22:25;;;;;;;93.78;40.67;;;;;;;-2.81;37.78;100659.64;1754842;81;21157;-72
2021/01/20 11:25:00;;;;;;;92.02;39.78;;;;;;;-2.97;36.33;100666.14;1739778;80;21182;-71
2021/01/20 11:27:23;;;;;;;94.37;37.93;;;;;;;-3.49;36.64;100658.69;1751328;80;21389;-72